Belfair, WA (98528)

8:44 AM PDT on September 01, 2014 (GMT -0700)
Happy Hollow Estates | Change Station
CLOSE
Current Station
Personal Weather Station
Location: Belfair, WA
Elevation: 203 ft
Nearby Weather Stations

Elev 203 ft 47.38 °N, 122.92 °W | Updated 7 seconds ago

Overcast
Overcast
67.1 °F
Feels Like 67.1 °F
N
3.1
Wind Variable Wind from East
Gusts 3.1 mph

Today
High -- | Low -- °F
--% Chance of Precip.
Yesterday
High -- | Low -- °F
Precip. -- in
6:30 AM 7:51 PM
Waxing Crescent, 42% visible
Pressure 30.13 in
Visibility 0.8 miles
Clouds Overcast 200 ft
Dew Point 56 °F
Humidity 68%
Rainfall 0.00 in
Snow Depth Not available.
UV 0 out of 12
Pollen 3.10 out of 12
Air Quality Not available.
Flu Activity Not available.
METAR KPWT 011535Z AUTO 00000KT 3/4SM OVC002 13/13 A3013 RMK AO1

More Conditions Fewer Conditions

Pressure 30.13 in
Visibility 0.8 miles
Clouds Overcast 200 ft
Dew Point 56 °F
Humidity 68%
Rainfall 0.00 in
Snow Depth Not available.
UV 0 out of 12
Pollen 3.10 out of 12
Air Quality Not available.
Flu Activity Not available.
METAR KPWT 011535Z AUTO 00000KT 3/4SM OVC002 13/13 A3013 RMK AO1

More Conditions Fewer Conditions

10-Day Weather Forecast

Almanac

Astronomy

Sep. 01, 2014 Rise Set
Actual Time 6:30 AM PDT 7:51 PM PDT
Civil Twilight 5:58 AM PDT 8:23 PM PDT
Nautical Twilight 5:20 AM PDT 9:01 PM PDT
Astronomical Twilight 4:38 AM PDT 9:42 PM PDT
Moon 1:49 PM PDT 11:28 PM PDT
Length of Visible Light 14h 24m
Length of Day
13h 21m
Tomorrow will be 3m 18s shorter.
Waxing Crescent, 42% of the Moon is Illuminated
Today
Waxing Crescent
Sep 2
First Quarter
Sep 8
Full
Sep 15
Last Quarter
Sep 24
New

Today's Extremes

State Highs State Lows

Community

WunderPhotos

Upload Photos

1,749,276 photos uploaded!

Nearby

Air Quality

  Air Quality AQ Index Pollutant
Monday Good
OZONE
Monday Good
PM2.5
Tuesday Good
OZONE
Tuesday Good
PM2.5
Wednesday Good
OZONE
Wednesday Good
PM2.5

Snow Depth

Station Depth Elevation
Mount Crag 0 in 4050 ft
Dungeness 0 in 4100 ft
Waterhole 0 in 5000 ft
Alpine Meadows 0 in 3500 ft
Mount Gardner 0 in 3000 ft

Earthquake Activity

City Distance Mag. Time & Date
No recent earthquake activity has been reported nearby.
Minimum magnitude displayed is 2.5.

Coastal Water Temperatures

Place Temperature
Port Townsend, WA 53.1 °F
Seattle, WA 55.9 °F
Friday Harbor, WA 52.0 °F
Tacoma, WA 55.0 °F

Nearby Weather Stations